Anaida Gdns, Puerto Rico
Current Conditions -  °F | °C
As of 3:50 PM on Tuesday 21 Oct 2014 (Local Time) from TJBQ Reporting Station
Thunderstorm Thunderstorm  
Wind Chill: 84°   Ceiling: Unl
Heat Index: 91°   Visibility: 10mi
Dew Point: 73°   Wind: 15mph
Humidity: 70%   Direction: 80°E
Pressure: 29.91"   Gusts: NA
Location:  18.0093°N, 66.6209°W
Report Text: TJBQ 211950Z 08013KT 10SM VCTS SCT028 SCT075 29/23 A2991 RMK RWY08 ATIS A
Loading
Personal Weather Stations






























Interactive Weather Map New forecast layout! Learn more

10-Day Weather Forecast

Advertisements
Track Severe Weather on mobile